Contact Us:
Email: info@sawbill.com
Phone: (218)663-7150
Fax: (218)663-7980
Mail: 4620 Sawbill Trail
Box 2129
Tofte, MN 55615


Powered by
Movable Type 3.15
 
Sawbill Weather History Archives: April 2013
Current Sawbill Weather History | « March 2013 | May 2013 »


Date

High
Temperature

Low
Temperature

Barometric
Pressure

Relative
Humidity 7AM

9 AM
Temperature

Moisture

Snow

4/30/13 61 35 30.45 60% 35 .13"
4/29/13 57 32 29.88 98% 38 Trace
4/28/13 56 32 30.18 79% 32 Trace
4/27/13 60 32 30.15 75% 41 0
4/26/13 53 32 30.42 72% 32 0
4/25/13 41 28 30.36 71% 33 0
4/24/13 39 21 30.36 79% 29 0
4/23/13 37 17 30.24 66% 21 0
4/22/13 35 27 30.36 72% 29 .18" 1.5"
4/21/13 33 23 30.45 83% 30 .3 3"
4/20/13 30 9 30.59 77% 23 0
4/19/13 23 8 30.36 73% 11 .27" 4"
4/18/13 33 21 29.80 81% 21 1.15" 13"
4/17/13 32 25 30.18 82% 27 .29" 3.5"
4/16/13 37 29 30.68 74% 30 Trace Trace
4/15/13 34 29 30.24 84% 29 .11" 1"
4/14/13 35 9 29.88 89% 30 .29" 3"
4/13/13 32 8 30.27 58% 9 Trace Trace
4/12/13 29 21 30.09 76% 22 .25" 3"
4/11/13 28 22 30.09 73% 22 .39" 4"
4/10/13 42 23 30.36 54% 23 0
4/9/13 38 21 30.47 49% 26 Trace Trace
4/8/13 37 31 30.42 77% 31 0
4/7/13 37 30 30.15 82% 31 .17" 2"
4/6/13 32 29 30.12 83% 30 .44" 5"
4/5/13 34 19 30.12 90% 29 .09" .75"
4/4/13 37 14 30.53 54% 19 0
4/3/13 35 12 30.24 67% 33 0
4/2/13 28 5 30.59 42% 12 0
4/1/13 27 10 30.47 52% 14 0
 


Home I Trip Planning I Rentals and Outfitting I Reservations I Campgrounds I Sawbill Store I Sawbill News I Contact

© 1997 - 2017, Sawbill Canoe Outfitters, Inc. I Privacy Policy